createdAt,value
2023-06-26T00:00:11.747Z,333.00
2023-06-26T00:01:11.690Z,331.00
2023-06-26T00:02:11.743Z,330.00
2023-06-26T00:03:11.793Z,330.00
2023-06-26T00:04:11.712Z,329.00
2023-06-26T00:05:11.731Z,328.00
2023-06-26T00:06:11.742Z,331.00
2023-06-26T00:07:11.906Z,332.00
2023-06-26T00:08:11.910Z,332.00
2023-06-26T00:09:12.003Z,333.00
2023-06-26T00:10:12.035Z,333.00
2023-06-26T00:11:12.080Z,331.00
2023-06-26T00:12:12.033Z,328.00
2023-06-26T00:13:12.051Z,327.00
2023-06-26T00:14:12.061Z,329.00
2023-06-26T00:15:12.114Z,329.00
2023-06-26T00:16:12.127Z,328.00
2023-06-26T00:17:12.162Z,328.00
2023-06-26T00:18:12.134Z,330.00
2023-06-26T00:19:12.158Z,330.00
2023-06-26T00:20:12.160Z,331.00
2023-06-26T00:21:12.250Z,330.00
2023-06-26T00:22:12.365Z,327.00
2023-06-26T00:23:12.323Z,326.00
2023-06-26T00:24:12.337Z,325.00
2023-06-26T00:25:12.388Z,324.00
2023-06-26T00:26:12.399Z,324.00
2023-06-26T00:27:12.358Z,325.00
2023-06-26T00:28:12.454Z,327.00
2023-06-26T00:29:12.536Z,327.00
2023-06-26T00:30:12.673Z,330.00
2023-06-26T00:31:12.795Z,329.00
2023-06-26T00:32:12.880Z,329.00
2023-06-26T00:33:12.971Z,331.00
2023-06-26T00:34:13.059Z,330.00
2023-06-26T00:35:13.180Z,330.00
2023-06-26T00:36:13.153Z,330.00
2023-06-26T00:37:13.176Z,333.00
2023-06-26T00:38:13.188Z,332.00
2023-06-26T00:39:13.203Z,330.00
2023-06-26T00:40:13.203Z,327.00
2023-06-26T00:41:13.248Z,325.00
2023-06-26T00:42:13.230Z,326.00
2023-06-26T00:43:13.259Z,326.00
2023-06-26T00:44:13.301Z,325.00
2023-06-26T00:45:13.275Z,328.00
2023-06-26T00:46:13.273Z,325.00
2023-06-26T00:47:13.313Z,326.00
2023-06-26T00:48:13.492Z,325.00
2023-06-26T00:49:13.289Z,323.00
2023-06-26T00:50:13.375Z,322.00
2023-06-26T00:51:13.489Z,323.00
2023-06-26T00:52:13.496Z,324.00
2023-06-26T00:53:13.567Z,325.00
2023-06-26T00:54:13.556Z,324.00
2023-06-26T00:55:13.579Z,324.00
2023-06-26T00:56:13.559Z,324.00
2023-06-26T00:57:13.636Z,324.00
2023-06-26T00:58:13.729Z,324.00
2023-06-26T00:59:13.844Z,325.00
2023-06-26T01:00:13.852Z,329.00
2023-06-26T01:01:13.819Z,331.00
2023-06-26T01:02:13.911Z,332.00
2023-06-26T01:03:13.927Z,332.00
2023-06-26T01:04:13.877Z,331.00
2023-06-26T01:05:14.072Z,330.00
2023-06-26T01:06:14.103Z,330.00
2023-06-26T01:07:14.132Z,328.00
2023-06-26T01:08:14.102Z,327.00
2023-06-26T01:09:14.071Z,327.00
2023-06-26T01:10:14.079Z,326.00
2023-06-26T01:11:14.130Z,327.00
2023-06-26T01:12:14.225Z,328.00
2023-06-26T01:13:14.366Z,329.00
2023-06-26T01:14:14.421Z,327.00
2023-06-26T01:15:14.499Z,325.00
2023-06-26T01:16:14.486Z,325.00
2023-06-26T01:17:14.475Z,328.00
2023-06-26T01:18:14.495Z,330.00
2023-06-26T01:19:14.508Z,329.00
2023-06-26T01:20:14.616Z,326.00
2023-06-26T01:21:14.613Z,326.00
2023-06-26T01:22:14.635Z,326.00
2023-06-26T01:23:14.611Z,326.00
2023-06-26T01:24:14.629Z,325.00
2023-06-26T01:25:14.707Z,326.00
2023-06-26T01:26:14.666Z,324.00
2023-06-26T01:27:14.711Z,325.00
2023-06-26T01:28:14.719Z,324.00
2023-06-26T01:29:14.765Z,322.00
2023-06-26T01:30:14.733Z,322.00
2023-06-26T01:31:14.804Z,324.00
2023-06-26T01:32:14.782Z,327.00
2023-06-26T01:33:14.788Z,327.00
2023-06-26T01:34:14.790Z,330.00
2023-06-26T01:35:14.862Z,329.00
2023-06-26T01:36:14.908Z,328.00
2023-06-26T01:37:14.921Z,326.00
2023-06-26T01:38:15.119Z,326.00
2023-06-26T01:39:15.285Z,325.00
2023-06-26T01:40:15.233Z,323.00
2023-06-26T01:41:15.059Z,324.00
2023-06-26T01:42:15.066Z,324.00
2023-06-26T01:43:15.059Z,326.00
2023-06-26T01:44:15.033Z,325.00
2023-06-26T01:45:15.085Z,325.00
2023-06-26T01:46:16.199Z,324.00
2023-06-26T01:47:15.219Z,323.00
2023-06-26T01:48:15.212Z,323.00
2023-06-26T01:49:15.221Z,326.00
2023-06-26T01:50:15.217Z,325.00
2023-06-26T01:51:15.289Z,324.00
2023-06-26T01:52:15.461Z,324.00
2023-06-26T01:53:15.352Z,325.00
2023-06-26T01:54:15.341Z,328.00
2023-06-26T01:55:15.373Z,327.00
2023-06-26T01:56:15.369Z,327.00
2023-06-26T01:57:15.410Z,326.00
2023-06-26T01:58:15.454Z,326.00
2023-06-26T01:59:15.424Z,325.00
2023-06-26T02:00:15.461Z,325.00
2023-06-26T02:01:15.515Z,326.00
2023-06-26T02:02:15.515Z,323.00
2023-06-26T02:03:15.693Z,322.00
2023-06-26T02:04:15.532Z,319.00
2023-06-26T02:05:15.530Z,321.00
2023-06-26T02:06:15.537Z,320.00
2023-06-26T02:07:15.557Z,319.00
2023-06-26T02:08:15.557Z,320.00
2023-06-26T02:09:15.613Z,321.00
2023-06-26T02:10:15.593Z,322.00
2023-06-26T02:11:15.629Z,322.00
2023-06-26T02:12:15.691Z,322.00
2023-06-26T02:13:15.677Z,320.00
2023-06-26T02:14:15.718Z,320.00
2023-06-26T02:15:15.777Z,320.00
2023-06-26T02:16:15.712Z,320.00
2023-06-26T02:17:15.808Z,318.00
2023-06-26T02:18:15.771Z,318.00
2023-06-26T02:19:15.828Z,320.00
2023-06-26T02:20:15.842Z,321.00
2023-06-26T02:21:15.838Z,322.00
2023-06-26T02:22:15.882Z,324.00
2023-06-26T02:23:15.897Z,327.00
2023-06-26T02:24:15.896Z,327.00
2023-06-26T02:25:15.922Z,327.00
2023-06-26T02:26:15.904Z,325.00
2023-06-26T02:27:15.976Z,324.00
2023-06-26T02:28:15.985Z,323.00
2023-06-26T02:29:15.991Z,323.00
2023-06-26T02:30:16.019Z,323.00
2023-06-26T02:31:16.031Z,322.00
2023-06-26T02:32:16.025Z,323.00
2023-06-26T02:33:16.086Z,324.00
2023-06-26T02:34:16.073Z,324.00
2023-06-26T02:35:16.111Z,325.00
2023-06-26T02:36:16.138Z,324.00
2023-06-26T02:37:16.153Z,322.00
2023-06-26T02:38:16.202Z,323.00
2023-06-26T02:39:16.206Z,321.00
2023-06-26T02:40:16.254Z,321.00
2023-06-26T02:41:16.236Z,320.00
2023-06-26T02:42:16.265Z,318.00
2023-06-26T02:43:16.298Z,319.00
2023-06-26T02:44:16.307Z,319.00
2023-06-26T02:45:16.349Z,318.00
2023-06-26T02:46:16.387Z,319.00
2023-06-26T02:47:16.526Z,319.00
2023-06-26T02:48:16.435Z,318.00
2023-06-26T02:49:16.426Z,320.00
2023-06-26T02:50:16.492Z,320.00
2023-06-26T02:51:16.845Z,320.00
2023-06-26T02:52:16.915Z,320.00
2023-06-26T02:53:16.560Z,321.00
2023-06-26T02:54:16.591Z,320.00
2023-06-26T02:55:16.641Z,321.00
2023-06-26T02:56:16.655Z,322.00
2023-06-26T02:57:16.638Z,321.00
2023-06-26T02:58:16.703Z,320.00
2023-06-26T02:59:16.706Z,320.00
2023-06-26T03:00:16.725Z,320.00
2023-06-26T03:01:18.272Z,320.00
2023-06-26T03:02:16.763Z,319.00
2023-06-26T03:03:16.781Z,318.00
2023-06-26T03:04:16.869Z,318.00
2023-06-26T03:05:16.848Z,321.00
2023-06-26T03:06:16.857Z,320.00
2023-06-26T03:07:16.888Z,320.00
2023-06-26T03:08:16.918Z,319.00
2023-06-26T03:09:16.926Z,317.00
2023-06-26T03:10:17.005Z,317.00
2023-06-26T03:11:16.968Z,316.00
2023-06-26T03:12:17.002Z,316.00
2023-06-26T03:13:17.006Z,317.00
2023-06-26T03:14:17.065Z,318.00
2023-06-26T03:15:17.100Z,320.00
2023-06-26T03:16:17.160Z,319.00
2023-06-26T03:17:17.138Z,319.00
2023-06-26T03:18:17.153Z,318.00
2023-06-26T03:19:17.161Z,317.00
2023-06-26T03:20:17.200Z,315.00
2023-06-26T03:21:17.202Z,317.00
2023-06-26T03:22:17.235Z,320.00
2023-06-26T03:23:17.249Z,325.00
2023-06-26T03:24:17.299Z,326.00
2023-06-26T03:25:17.283Z,326.00
2023-06-26T03:26:17.327Z,327.00
2023-06-26T03:27:19.400Z,325.00
2023-06-26T03:28:17.376Z,324.00
2023-06-26T03:29:17.474Z,323.00
2023-06-26T03:30:17.444Z,322.00
2023-06-26T03:31:17.471Z,322.00
2023-06-26T03:32:17.487Z,321.00
2023-06-26T03:33:17.511Z,321.00
2023-06-26T03:34:17.529Z,321.00
2023-06-26T03:35:17.538Z,320.00
2023-06-26T03:36:17.546Z,320.00
2023-06-26T03:37:17.652Z,320.00
2023-06-26T03:38:17.629Z,319.00
2023-06-26T03:39:17.664Z,320.00
2023-06-26T03:40:17.710Z,318.00
2023-06-26T03:41:17.717Z,320.00
2023-06-26T03:42:17.750Z,320.00
2023-06-26T03:43:17.730Z,320.00
2023-06-26T03:44:17.774Z,319.00
2023-06-26T03:45:17.852Z,320.00
2023-06-26T03:46:17.885Z,320.00
2023-06-26T03:47:17.867Z,321.00
2023-06-26T03:48:17.890Z,320.00
2023-06-26T03:49:17.923Z,320.00
2023-06-26T03:50:17.917Z,318.00
2023-06-26T03:51:18.011Z,320.00
2023-06-26T03:52:17.999Z,320.00
2023-06-26T03:53:18.008Z,322.00
2023-06-26T03:54:18.028Z,322.00
2023-06-26T03:55:19.974Z,323.00
2023-06-26T03:56:18.071Z,323.00
2023-06-26T03:57:18.121Z,325.00
2023-06-26T03:58:18.141Z,326.00
2023-06-26T03:59:18.147Z,324.00
2023-06-26T04:00:18.201Z,323.00
2023-06-26T04:01:18.244Z,322.00
2023-06-26T04:02:18.316Z,322.00
2023-06-26T04:03:18.322Z,325.00
2023-06-26T04:04:18.443Z,326.00
2023-06-26T04:05:18.388Z,329.00
2023-06-26T04:06:18.458Z,332.00
2023-06-26T04:07:18.542Z,337.00
2023-06-26T04:08:18.630Z,339.00
2023-06-26T04:09:18.603Z,341.00
2023-06-26T04:10:18.697Z,344.00
2023-06-26T04:11:18.746Z,347.00
2023-06-26T04:12:18.800Z,349.00
2023-06-26T04:13:18.877Z,353.00
2023-06-26T04:14:18.927Z,360.00
2023-06-26T04:15:19.012Z,362.00
2023-06-26T04:16:19.042Z,364.00
2023-06-26T04:17:19.160Z,368.00
2023-06-26T04:18:19.146Z,372.00
2023-06-26T04:19:19.210Z,374.00
2023-06-26T04:20:19.257Z,377.00
2023-06-26T04:21:19.372Z,380.00
2023-06-26T04:22:19.402Z,386.00
2023-06-26T04:23:19.443Z,388.00
2023-06-26T04:24:19.486Z,391.00
2023-06-26T04:25:19.559Z,392.00
2023-06-26T04:26:19.628Z,395.00
2023-06-26T04:27:19.675Z,398.00
2023-06-26T04:28:19.752Z,398.00
2023-06-26T04:29:19.786Z,401.00
2023-06-26T04:30:19.864Z,403.00
2023-06-26T04:31:19.995Z,402.00
2023-06-26T04:32:19.965Z,399.00
2023-06-26T04:33:20.061Z,399.00
2023-06-26T04:34:20.065Z,399.00
2023-06-26T04:35:20.089Z,397.00
2023-06-26T04:36:20.143Z,397.00
2023-06-26T04:37:20.171Z,400.00
2023-06-26T04:38:20.199Z,403.00
2023-06-26T04:39:20.234Z,401.00
2023-06-26T04:40:20.269Z,399.00
2023-06-26T04:41:20.283Z,397.00
2023-06-26T04:42:20.332Z,396.00
2023-06-26T04:43:20.399Z,395.00
2023-06-26T04:44:20.432Z,394.00
2023-06-26T04:45:20.456Z,392.00
2023-06-26T04:46:20.752Z,391.00
2023-06-26T04:47:20.520Z,393.00
2023-06-26T04:48:20.571Z,394.00
2023-06-26T04:49:20.606Z,394.00
2023-06-26T04:50:20.621Z,391.00
2023-06-26T04:51:20.688Z,390.00
2023-06-26T04:52:20.710Z,392.00
2023-06-26T04:53:20.740Z,388.00
2023-06-26T04:54:20.779Z,388.00
2023-06-26T04:55:20.785Z,390.00
2023-06-26T04:56:20.837Z,387.00
2023-06-26T04:57:20.846Z,387.00
2023-06-26T04:58:20.961Z,390.00
2023-06-26T04:59:21.060Z,393.00
2023-06-26T05:00:20.997Z,394.00
2023-06-26T05:01:21.140Z,391.00
2023-06-26T05:02:21.211Z,394.00
2023-06-26T05:03:21.364Z,395.00
2023-06-26T05:04:21.235Z,397.00
2023-06-26T05:05:21.321Z,397.00
2023-06-26T05:06:21.300Z,396.00
2023-06-26T05:07:21.437Z,398.00
2023-06-26T05:08:21.542Z,398.00
2023-06-26T05:09:21.501Z,398.00
2023-06-26T05:10:21.557Z,399.00
2023-06-26T05:11:21.598Z,401.00
2023-06-26T05:12:21.726Z,402.00
2023-06-26T05:13:21.728Z,403.00
2023-06-26T05:14:23.615Z,405.00
2023-06-26T05:15:21.788Z,407.00
2023-06-26T05:16:21.763Z,410.00
2023-06-26T05:17:21.812Z,410.00
2023-06-26T05:18:21.768Z,413.00
2023-06-26T05:19:21.775Z,414.00
2023-06-26T05:20:21.836Z,413.00
2023-06-26T05:21:21.870Z,413.00
2023-06-26T05:22:21.759Z,414.00
2023-06-26T05:23:21.762Z,415.00
2023-06-26T05:24:22.703Z,418.00
2023-06-26T05:25:21.712Z,419.00
2023-06-26T05:26:21.756Z,418.00
2023-06-26T05:27:21.750Z,418.00
2023-06-26T05:28:21.685Z,420.00
2023-06-26T05:29:21.663Z,420.00
2023-06-26T05:30:21.651Z,420.00
2023-06-26T05:31:21.707Z,422.00
2023-06-26T05:32:21.702Z,436.00
2023-06-26T05:33:21.668Z,484.00
2023-06-26T05:34:21.651Z,552.00
2023-06-26T05:35:21.657Z,482.00
2023-06-26T05:36:21.666Z,468.00
2023-06-26T05:37:21.640Z,479.00
2023-06-26T05:38:21.645Z,486.00
2023-06-26T05:39:21.612Z,497.00
2023-06-26T05:40:21.622Z,499.00
2023-06-26T05:41:21.623Z,500.00
2023-06-26T05:42:21.617Z,493.00
2023-06-26T05:43:25.980Z,488.00
2023-06-26T05:44:22.590Z,483.00
2023-06-26T05:45:21.567Z,477.00
2023-06-26T05:46:21.569Z,477.00
2023-06-26T05:47:21.620Z,483.00
2023-06-26T05:48:21.590Z,490.00
2023-06-26T05:49:21.583Z,490.00
2023-06-26T05:50:21.541Z,491.00
2023-06-26T05:51:21.529Z,490.00
2023-06-26T05:52:21.561Z,493.00
2023-06-26T05:53:21.525Z,497.00
2023-06-26T05:54:21.525Z,501.00
2023-06-26T05:55:21.500Z,506.00
2023-06-26T05:56:21.498Z,515.00
2023-06-26T05:57:21.472Z,522.00
2023-06-26T05:58:21.488Z,531.00
2023-06-26T05:59:21.494Z,533.00
2023-06-26T06:00:21.502Z,537.00
2023-06-26T06:01:21.511Z,541.00
2023-06-26T06:02:21.490Z,548.00
2023-06-26T06:03:21.558Z,552.00
2023-06-26T06:04:21.445Z,555.00
2023-06-26T06:05:21.801Z,558.00
2023-06-26T06:06:21.471Z,557.00
2023-06-26T06:07:21.580Z,556.00
2023-06-26T06:08:21.640Z,557.00
2023-06-26T06:09:21.737Z,556.00
2023-06-26T06:10:21.726Z,553.00
2023-06-26T06:11:21.830Z,554.00
2023-06-26T06:12:21.909Z,553.00
2023-06-26T06:13:21.902Z,557.00
2023-06-26T06:14:21.958Z,555.00
2023-06-26T06:15:22.006Z,552.00
2023-06-26T06:16:22.037Z,557.00
2023-06-26T06:17:22.193Z,556.00
2023-06-26T06:18:22.176Z,559.00
2023-06-26T06:19:22.196Z,560.00
2023-06-26T06:20:22.266Z,560.00
2023-06-26T06:21:22.285Z,556.00
2023-06-26T06:22:22.359Z,558.00
2023-06-26T06:23:22.363Z,561.00
2023-06-26T06:24:22.414Z,562.00
2023-06-26T06:25:22.459Z,562.00
2023-06-26T06:26:22.496Z,567.00
2023-06-26T06:27:22.560Z,567.00
2023-06-26T06:28:22.611Z,566.00
2023-06-26T06:29:22.637Z,566.00
2023-06-26T06:30:43.616Z,565.00
2023-06-26T06:31:23.896Z,567.00
2023-06-26T06:32:22.679Z,571.00
2023-06-26T06:33:22.648Z,572.00
2023-06-26T06:34:22.690Z,573.00
2023-06-26T06:35:26.326Z,578.00
2023-06-26T06:36:22.640Z,580.00
2023-06-26T06:37:22.677Z,577.00
2023-06-26T06:38:22.613Z,578.00
2023-06-26T06:39:22.763Z,582.00
2023-06-26T06:40:22.650Z,581.00
2023-06-26T06:41:22.668Z,578.00
2023-06-26T06:42:22.661Z,575.00
2023-06-26T06:43:22.685Z,569.00
2023-06-26T06:44:22.583Z,562.00
2023-06-26T06:45:22.651Z,559.00
2023-06-26T06:46:22.611Z,554.00
2023-06-26T06:47:22.598Z,546.00
2023-06-26T06:48:22.580Z,548.00
2023-06-26T06:49:22.849Z,547.00
2023-06-26T06:50:22.693Z,547.00
2023-06-26T06:51:22.705Z,544.00
2023-06-26T06:52:22.700Z,547.00
2023-06-26T06:53:22.757Z,549.00
2023-06-26T06:54:22.819Z,549.00
2023-06-26T06:55:22.812Z,549.00
2023-06-26T06:56:22.882Z,552.00
2023-06-26T06:57:22.886Z,553.00
2023-06-26T06:58:22.951Z,557.00
2023-06-26T06:59:22.965Z,558.00
2023-06-26T07:00:22.994Z,561.00
2023-06-26T07:01:23.058Z,560.00
2023-06-26T07:02:23.055Z,561.00
2023-06-26T07:03:23.250Z,561.00
2023-06-26T07:04:23.100Z,562.00
2023-06-26T07:05:23.096Z,562.00
2023-06-26T07:06:23.116Z,561.00
2023-06-26T07:07:23.203Z,561.00
2023-06-26T07:08:23.150Z,562.00
2023-06-26T07:09:23.948Z,564.00
2023-06-26T07:10:23.384Z,563.00
2023-06-26T07:11:23.230Z,561.00
2023-06-26T07:12:23.257Z,563.00
2023-06-26T07:13:23.260Z,566.00
2023-06-26T07:14:23.259Z,569.00
2023-06-26T07:15:23.630Z,567.00
2023-06-26T07:16:23.310Z,567.00
2023-06-26T07:17:23.349Z,567.00
2023-06-26T07:18:23.294Z,568.00
2023-06-26T07:19:23.278Z,569.00
2023-06-26T07:20:23.300Z,568.00
2023-06-26T07:21:24.530Z,570.00
2023-06-26T07:22:23.273Z,571.00
2023-06-26T07:23:23.326Z,571.00
2023-06-26T07:24:23.297Z,572.00
2023-06-26T07:25:23.283Z,571.00
2023-06-26T07:26:35.603Z,572.00
2023-06-26T07:27:24.252Z,570.00
2023-06-26T07:28:23.258Z,568.00
2023-06-26T07:29:23.268Z,573.00
2023-06-26T07:30:23.280Z,575.00
2023-06-26T07:31:23.280Z,574.00
2023-06-26T07:32:23.256Z,577.00
2023-06-26T07:33:23.225Z,594.00
2023-06-26T07:34:23.224Z,633.00
2023-06-26T07:35:23.209Z,649.00
2023-06-26T07:36:23.245Z,647.00
2023-06-26T07:37:23.206Z,660.00
2023-06-26T07:38:23.177Z,672.00
2023-06-26T07:39:24.191Z,687.00
2023-06-26T07:40:23.177Z,711.00
2023-06-26T07:41:23.202Z,719.00
2023-06-26T07:42:23.188Z,728.00
2023-06-26T07:43:23.190Z,734.00
2023-06-26T07:44:23.160Z,742.00
2023-06-26T07:45:25.444Z,755.00
2023-06-26T07:46:23.160Z,751.00
2023-06-26T07:47:23.168Z,753.00
2023-06-26T07:48:23.135Z,751.00
2023-06-26T07:49:23.132Z,670.00
2023-06-26T07:50:23.139Z,677.00
2023-06-26T07:51:23.153Z,661.00
2023-06-26T07:52:23.116Z,659.00
2023-06-26T07:53:23.130Z,641.00
2023-06-26T07:54:23.135Z,620.00
2023-06-26T07:55:23.131Z,620.00
2023-06-26T07:56:23.074Z,617.00
2023-06-26T07:57:23.079Z,604.00
2023-06-26T07:58:23.106Z,597.00
2023-06-26T07:59:23.070Z,598.00
2023-06-26T08:00:23.086Z,593.00
2023-06-26T08:01:23.045Z,596.00
2023-06-26T08:02:23.097Z,595.00
2023-06-26T08:03:34.370Z,596.00
2023-06-26T08:04:24.225Z,607.00
2023-06-26T08:05:23.079Z,620.00
2023-06-26T08:06:23.012Z,618.00
2023-06-26T08:07:23.043Z,608.00
2023-06-26T08:08:22.993Z,611.00
2023-06-26T08:09:23.022Z,608.00
2023-06-26T08:10:23.013Z,603.00
2023-06-26T08:11:23.045Z,602.00
2023-06-26T08:12:23.040Z,607.00
2023-06-26T08:13:23.090Z,609.00
2023-06-26T08:14:23.116Z,603.00
2023-06-26T08:15:23.123Z,603.00
2023-06-26T08:16:23.112Z,599.00
2023-06-26T08:17:23.163Z,597.00
2023-06-26T08:18:23.157Z,594.00
2023-06-26T08:19:23.132Z,593.00
2023-06-26T08:20:23.140Z,595.00
2023-06-26T08:21:23.159Z,596.00
2023-06-26T08:22:23.212Z,594.00
2023-06-26T08:23:24.529Z,598.00
2023-06-26T08:24:23.157Z,603.00
2023-06-26T08:25:23.175Z,609.00
2023-06-26T08:26:23.140Z,617.00
2023-06-26T08:27:23.161Z,578.00
2023-06-26T08:28:23.146Z,566.00
2023-06-26T08:29:23.182Z,559.00
2023-06-26T08:30:23.168Z,551.00
2023-06-26T08:31:23.230Z,535.00
2023-06-26T08:32:23.170Z,519.00
2023-06-26T08:33:23.130Z,506.00
2023-06-26T08:34:23.152Z,490.00
2023-06-26T08:35:23.116Z,469.00
2023-06-26T08:36:23.096Z,469.00
2023-06-26T08:37:23.103Z,466.00
2023-06-26T08:38:23.079Z,460.00
2023-06-26T08:39:23.087Z,457.00
2023-06-26T08:40:23.080Z,452.00
2023-06-26T08:41:23.073Z,449.00
2023-06-26T08:42:23.061Z,445.00
2023-06-26T08:43:23.056Z,442.00
2023-06-26T08:44:23.069Z,447.00
2023-06-26T08:45:23.120Z,512.00
2023-06-26T08:46:23.066Z,528.00
2023-06-26T08:47:23.695Z,560.00
2023-06-26T08:48:23.029Z,568.00
2023-06-26T08:49:23.034Z,577.00
2023-06-26T08:50:23.012Z,581.00
2023-06-26T08:51:22.994Z,580.00
2023-06-26T08:52:23.007Z,584.00
2023-06-26T08:53:22.985Z,592.00
2023-06-26T08:54:22.982Z,600.00
2023-06-26T08:55:23.002Z,605.00
2023-06-26T08:56:22.951Z,611.00
2023-06-26T08:57:22.993Z,607.00
2023-06-26T08:58:22.935Z,600.00
2023-06-26T08:59:22.957Z,531.00
2023-06-26T09:00:22.935Z,586.00
2023-06-26T09:01:22.930Z,603.00
2023-06-26T09:02:23.029Z,593.00
2023-06-26T09:03:22.971Z,585.00
2023-06-26T09:04:22.945Z,581.00
2023-06-26T09:05:22.878Z,559.00
2023-06-26T09:06:22.917Z,553.00
2023-06-26T09:07:22.966Z,551.00
2023-06-26T09:08:22.938Z,540.00
2023-06-26T09:09:22.865Z,525.00
2023-06-26T09:10:22.852Z,519.00
2023-06-26T09:11:22.977Z,513.00
2023-06-26T09:12:22.854Z,515.00
2023-06-26T09:13:29.354Z,523.00
2023-06-26T09:14:23.884Z,538.00
2023-06-26T09:15:22.884Z,545.00
2023-06-26T09:16:22.857Z,552.00
2023-06-26T09:17:22.911Z,556.00
2023-06-26T09:18:22.894Z,563.00
2023-06-26T09:19:23.377Z,577.00
2023-06-26T09:20:22.823Z,582.00
2023-06-26T09:21:22.793Z,590.00
2023-06-26T09:22:22.772Z,593.00
2023-06-26T09:23:22.833Z,550.00
2023-06-26T09:24:22.766Z,572.00
2023-06-26T09:25:22.746Z,561.00
2023-06-26T09:26:22.785Z,583.00
2023-06-26T09:27:22.752Z,576.00
2023-06-26T09:28:22.759Z,563.00
2023-06-26T09:29:22.772Z,521.00
2023-06-26T09:30:22.857Z,546.00
2023-06-26T09:31:39.782Z,543.00
2023-06-26T09:32:23.913Z,545.00
2023-06-26T09:33:22.948Z,542.00
2023-06-26T09:34:22.857Z,534.00
2023-06-26T09:35:22.795Z,545.00
2023-06-26T09:36:22.813Z,601.00
2023-06-26T09:37:22.762Z,582.00
2023-06-26T09:38:22.766Z,557.00
2023-06-26T09:39:22.783Z,554.00
2023-06-26T09:40:22.806Z,569.00
2023-06-26T09:41:22.747Z,666.00
2023-06-26T09:42:22.725Z,666.00
2023-06-26T09:43:22.762Z,656.00
2023-06-26T09:44:22.754Z,649.00
2023-06-26T09:45:22.713Z,622.00
2023-06-26T09:46:22.769Z,594.00
2023-06-26T09:47:23.501Z,585.00
2023-06-26T09:48:22.710Z,612.00
2023-06-26T09:49:22.683Z,622.00
2023-06-26T09:50:22.705Z,628.00
2023-06-26T09:51:22.721Z,610.00
2023-06-26T09:52:22.668Z,598.00
2023-06-26T09:53:22.666Z,578.00
2023-06-26T09:54:22.681Z,568.00
2023-06-26T09:55:22.681Z,566.00
2023-06-26T09:56:22.669Z,574.00
2023-06-26T09:57:22.635Z,555.00
2023-06-26T09:58:22.677Z,551.00
2023-06-26T09:59:22.655Z,549.00
2023-06-26T10:00:22.675Z,541.00
2023-06-26T10:01:22.666Z,562.00
2023-06-26T10:02:22.713Z,550.00
2023-06-26T10:03:22.775Z,543.00
2023-06-26T10:04:22.756Z,549.00
2023-06-26T10:05:22.594Z,554.00
2023-06-26T10:06:22.699Z,617.00
2023-06-26T10:07:22.631Z,645.00
2023-06-26T10:08:22.576Z,602.00
2023-06-26T10:09:22.623Z,575.00
2023-06-26T10:10:22.566Z,544.00
2023-06-26T10:11:22.602Z,547.00
2023-06-26T10:12:22.597Z,547.00
2023-06-26T10:13:22.538Z,538.00
2023-06-26T10:14:22.543Z,524.00
2023-06-26T10:15:22.563Z,525.00
2023-06-26T10:16:22.689Z,523.00
2023-06-26T10:17:22.641Z,524.00
2023-06-26T10:18:22.511Z,544.00
2023-06-26T10:19:22.510Z,604.00
2023-06-26T10:20:22.488Z,581.00
2023-06-26T10:21:22.531Z,579.00
2023-06-26T10:22:22.685Z,630.00
2023-06-26T10:23:22.505Z,565.00
2023-06-26T10:24:22.482Z,565.00
2023-06-26T10:25:22.465Z,572.00
2023-06-26T10:26:22.493Z,584.00
2023-06-26T10:27:22.564Z,604.00
2023-06-26T10:28:22.496Z,610.00
2023-06-26T10:29:22.482Z,689.00
2023-06-26T10:30:22.470Z,551.00
2023-06-26T10:31:22.516Z,590.00
2023-06-26T10:32:22.472Z,622.00
2023-06-26T10:33:22.443Z,648.00
2023-06-26T10:34:22.416Z,661.00
2023-06-26T10:35:22.473Z,669.00
2023-06-26T10:36:22.511Z,672.00
2023-06-26T10:37:22.552Z,672.00
2023-06-26T10:38:22.601Z,674.00
2023-06-26T10:39:22.602Z,677.00
2023-06-26T10:40:22.669Z,684.00
2023-06-26T10:41:22.699Z,686.00
2023-06-26T10:42:22.739Z,690.00
2023-06-26T10:43:22.783Z,691.00
2023-06-26T10:44:22.806Z,696.00
2023-06-26T10:45:22.824Z,698.00
2023-06-26T10:46:22.827Z,699.00
2023-06-26T10:47:22.990Z,705.00
2023-06-26T10:48:22.928Z,717.00
2023-06-26T10:49:23.008Z,720.00
2023-06-26T10:50:37.812Z,713.00
2023-06-26T10:51:23.992Z,707.00
2023-06-26T10:52:23.031Z,699.00
2023-06-26T10:53:23.087Z,695.00
2023-06-26T10:54:23.018Z,694.00
2023-06-26T10:55:23.051Z,696.00
2023-06-26T10:56:23.991Z,697.00
2023-06-26T10:57:22.974Z,698.00
2023-06-26T10:58:22.982Z,701.00
2023-06-26T10:59:22.988Z,703.00
2023-06-26T11:00:22.964Z,709.00
2023-06-26T11:01:23.280Z,714.00
2023-06-26T11:02:22.955Z,718.00
2023-06-26T11:03:22.953Z,725.00
2023-06-26T11:04:23.016Z,730.00
2023-06-26T11:05:22.927Z,739.00
2023-06-26T11:06:22.944Z,745.00
2023-06-26T11:07:22.980Z,755.00
2023-06-26T11:08:22.960Z,758.00
2023-06-26T11:09:23.018Z,766.00
2023-06-26T11:10:23.041Z,770.00
2023-06-26T11:11:23.090Z,771.00
2023-06-26T11:12:23.092Z,772.00
2023-06-26T11:13:23.115Z,773.00
2023-06-26T11:14:23.169Z,778.00
2023-06-26T11:15:23.184Z,778.00
2023-06-26T11:16:23.224Z,781.00
2023-06-26T11:17:23.300Z,789.00
2023-06-26T11:18:23.291Z,826.00
2023-06-26T11:19:23.299Z,881.00
2023-06-26T11:20:23.333Z,889.00
2023-06-26T11:21:23.340Z,885.00
2023-06-26T11:22:23.370Z,880.00
2023-06-26T11:23:23.412Z,865.00
2023-06-26T11:24:23.397Z,853.00
2023-06-26T11:25:23.390Z,802.00
2023-06-26T11:26:23.454Z,790.00
2023-06-26T11:27:23.478Z,767.00
2023-06-26T11:28:23.473Z,756.00
2023-06-26T11:29:23.513Z,750.00
2023-06-26T11:30:23.534Z,722.00
2023-06-26T11:31:23.623Z,705.00
2023-06-26T11:32:23.569Z,695.00
2023-06-26T11:33:23.622Z,685.00
2023-06-26T11:34:23.654Z,671.00
2023-06-26T11:35:23.734Z,660.00
2023-06-26T11:36:23.670Z,634.00
2023-06-26T11:37:23.731Z,621.00
2023-06-26T11:38:23.795Z,614.00
2023-06-26T11:39:23.749Z,606.00
2023-06-26T11:40:23.793Z,600.00
2023-06-26T11:41:23.854Z,599.00
2023-06-26T11:42:23.864Z,591.00
2023-06-26T11:43:23.914Z,575.00
2023-06-26T11:44:23.987Z,561.00
2023-06-26T11:45:24.030Z,556.00
2023-06-26T11:46:24.019Z,547.00
2023-06-26T11:47:24.191Z,541.00
2023-06-26T11:48:24.181Z,534.00
2023-06-26T11:49:24.162Z,530.00
2023-06-26T11:50:24.228Z,526.00
2023-06-26T11:51:24.259Z,520.00
2023-06-26T11:52:24.285Z,519.00
2023-06-26T11:53:24.350Z,514.00
2023-06-26T11:54:24.369Z,505.00
2023-06-26T11:55:24.405Z,499.00
2023-06-26T11:56:24.505Z,493.00
2023-06-26T11:57:24.497Z,488.00
2023-06-26T11:58:24.538Z,483.00
2023-06-26T11:59:24.592Z,476.00
2023-06-26T12:00:24.630Z,471.00
2023-06-26T12:01:24.720Z,469.00
2023-06-26T12:02:24.747Z,468.00
2023-06-26T12:03:24.818Z,474.00
2023-06-26T12:04:24.906Z,475.00
2023-06-26T12:05:24.877Z,473.00
2023-06-26T12:06:24.948Z,469.00
2023-06-26T12:07:24.934Z,470.00
2023-06-26T12:08:24.960Z,469.00
2023-06-26T12:09:24.968Z,465.00
2023-06-26T12:10:24.925Z,463.00
2023-06-26T12:11:24.922Z,458.00
2023-06-26T12:12:24.949Z,458.00
2023-06-26T12:13:24.934Z,458.00
2023-06-26T12:14:25.008Z,459.00
2023-06-26T12:15:25.060Z,458.00
2023-06-26T12:16:25.043Z,459.00
2023-06-26T12:17:25.041Z,460.00
2023-06-26T12:18:25.032Z,461.00
2023-06-26T12:19:25.072Z,462.00
2023-06-26T12:20:25.058Z,463.00
2023-06-26T12:21:25.014Z,462.00
2023-06-26T12:22:25.005Z,462.00
2023-06-26T12:23:25.188Z,462.00
2023-06-26T12:24:25.081Z,461.00
2023-06-26T12:25:25.093Z,459.00
2023-06-26T12:26:25.087Z,458.00
2023-06-26T12:27:25.133Z,456.00
2023-06-26T12:28:25.153Z,457.00